Time;durP1;ratioP1;P1;durP2;ratioP2;P2;SDS_P1;SDS_P2;PMS_P1;PMS_P2;Temp;Humidity;BMP_temperature;BMP_pressure;BME280_temperature;BME280_humidity;BME280_pressure;Samples;Min_cycle;Max_cycle;Signal;HPM_P1;HPM_P2
2022/05/05 00:02:15;;;;;;;2.03;1.00;;;;;;;;;;5053038;28;20151;-71
2022/05/05 00:04:42;;;;;;;4.55;1.90;;;;;;;;;;5034831;28;20033;-71
2022/05/05 00:07:09;;;;;;;4.95;1.90;;;;;;;;;;5053106;28;20045;-71
2022/05/05 00:09:36;;;;;;;2.63;1.73;;;;;;;;;;5035744;28;20108;-70
2022/05/05 00:14:49;;;;;;;2.45;1.40;;;;;;;;;;5053677;28;20397;-70
2022/05/05 00:17:17;;;;;;;1.83;1.02;;;;;;;;;;5052787;28;20132;-72
2022/05/05 00:19:44;;;;;;;1.70;1.20;;;;;;;;;;5036073;28;20029;-71
2022/05/05 00:22:12;;;;;;;5.65;1.63;;;;;;;;;;5056574;28;20389;-70
2022/05/05 00:24:39;;;;;;;12.85;3.42;;;;;;;;;;5056803;28;20389;-71
2022/05/05 00:27:08;;;;;;;3.78;1.30;;;;;;;;;;5056606;28;20018;-69
2022/05/05 00:29:35;;;;;;;2.95;1.45;;;;;;;;;;5056233;28;20024;-71
2022/05/05 00:32:02;;;;;;;2.70;1.63;;;;;;;;;;5056951;28;20037;-70
2022/05/05 00:34:29;;;;;;;2.05;1.00;;;;;;;;;;5056482;28;20104;-71
2022/05/05 00:36:57;;;;;;;2.83;1.00;;;;;;;;;;5038415;28;20033;-70
2022/05/05 00:39:24;;;;;;;3.65;1.10;;;;;;;;;;5056350;28;20097;-71
2022/05/05 00:41:52;;;;;;;1.58;0.90;;;;;;;;;;5056438;28;20021;-72
2022/05/05 00:44:19;;;;;;;2.58;1.20;;;;;;;;;;5056690;28;20021;-71
2022/05/05 00:46:51;;;;;;;2.67;0.90;;;;;;;;;;5038940;28;20459;-71
2022/05/05 00:49:18;;;;;;;1.92;1.30;;;;;;;;;;5055842;28;20017;-71
2022/05/05 00:51:45;;;;;;;2.38;1.15;;;;;;;;;;5055796;28;20025;-71
2022/05/05 00:54:13;;;;;;;2.47;1.08;;;;;;;;;;5055511;28;20444;-71
2022/05/05 00:56:40;;;;;;;1.88;1.10;;;;;;;;;;5037597;28;20393;-71
2022/05/05 00:59:07;;;;;;;1.92;1.08;;;;;;;;;;5037798;28;20520;-71
2022/05/05 01:01:35;;;;;;;1.95;1.15;;;;;;;;;;5055859;28;20026;-72
2022/05/05 01:04:02;;;;;;;1.77;1.13;;;;;;;;;;5037782;28;20048;-71
2022/05/05 01:06:30;;;;;;;4.10;1.55;;;;;;;;;;5055552;28;20017;-71
2022/05/05 01:08:57;;;;;;;5.18;1.63;;;;;;;;;;5055657;28;20100;-71
2022/05/05 01:11:25;;;;;;;4.32;1.60;;;;;;;;;;5055828;28;20053;-71
2022/05/05 01:13:52;;;;;;;2.25;1.55;;;;;;;;;;5055977;28;20095;-71
2022/05/05 01:16:19;;;;;;;4.28;1.60;;;;;;;;;;5037575;28;20025;-71
2022/05/05 01:18:46;;;;;;;5.18;1.63;;;;;;;;;;5054960;28;20432;-71
2022/05/05 01:21:13;;;;;;;4.63;1.63;;;;;;;;;;5055040;28;20052;-71
2022/05/05 01:23:41;;;;;;;3.42;1.77;;;;;;;;;;5055481;28;20071;-70
2022/05/05 01:28:53;;;;;;;2.65;1.80;;;;;;;;;;5055364;28;20024;-71
2022/05/05 01:31:20;;;;;;;5.28;1.88;;;;;;;;;;5053893;28;20029;-71
2022/05/05 01:33:48;;;;;;;3.20;1.60;;;;;;;;;;5054470;28;20025;-71
2022/05/05 01:36:16;;;;;;;3.67;1.40;;;;;;;;;;5036584;28;20056;-71
2022/05/05 01:38:44;;;;;;;3.00;1.60;;;;;;;;;;5055327;28;20029;-72
2022/05/05 01:41:13;;;;;;;2.50;1.10;;;;;;;;;;5055139;28;20024;-72
2022/05/05 01:43:41;;;;;;;3.50;1.40;;;;;;;;;;5055024;28;20029;-71
2022/05/05 01:46:08;;;;;;;1.88;1.17;;;;;;;;;;5055329;28;20021;-71
2022/05/05 01:48:36;;;;;;;2.78;1.17;;;;;;;;;;5037259;28;20482;-72
2022/05/05 01:51:04;;;;;;;3.30;1.25;;;;;;;;;;5036585;28;20489;-72
2022/05/05 01:53:37;;;;;;;2.30;1.00;;;;;;;;;;5055470;28;20441;-72
2022/05/05 01:56:11;;;;;;;3.10;1.40;;;;;;;;;;5036237;28;20468;-71
2022/05/05 01:58:41;;;;;;;1.70;0.90;;;;;;;;;;5036500;28;20024;-71
2022/05/05 02:01:09;;;;;;;1.58;1.00;;;;;;;;;;5036496;28;20115;-71
2022/05/05 02:03:36;;;;;;;2.50;1.08;;;;;;;;;;5054478;28;20550;-71
2022/05/05 02:06:04;;;;;;;1.38;1.00;;;;;;;;;;5036244;28;20028;-72
2022/05/05 02:08:31;;;;;;;2.30;0.80;;;;;;;;;;5055136;28;20500;-71
2022/05/05 02:10:58;;;;;;;3.95;1.40;;;;;;;;;;5036991;28;20021;-72
2022/05/05 02:13:25;;;;;;;3.70;1.08;;;;;;;;;;5054688;28;20021;-71
2022/05/05 02:15:52;;;;;;;2.45;1.20;;;;;;;;;;5037180;28;20021;-73
2022/05/05 02:18:19;;;;;;;2.55;1.17;;;;;;;;;;5036058;28;20025;-72
2022/05/05 02:20:47;;;;;;;1.40;0.80;;;;;;;;;;5054163;28;20484;-72
2022/05/05 02:23:15;;;;;;;1.83;0.98;;;;;;;;;;5036220;28;20033;-73
2022/05/05 02:25:42;;;;;;;1.65;1.00;;;;;;;;;;5036008;28;20457;-74
2022/05/05 02:28:09;;;;;;;3.22;1.30;;;;;;;;;;5053981;28;20021;-72
2022/05/05 02:30:39;;;;;;;2.95;1.08;;;;;;;;;;5053961;28;20048;-73
2022/05/05 02:33:07;;;;;;;2.67;0.80;;;;;;;;;;5035733;28;20111;-73
2022/05/05 02:35:34;;;;;;;1.25;0.80;;;;;;;;;;5054143;28;20025;-73
2022/05/05 02:40:47;;;;;;;1.27;0.73;;;;;;;;;;5054043;28;20039;-73
2022/05/05 02:43:14;;;;;;;3.13;1.00;;;;;;;;;;5054814;28;20107;-72
2022/05/05 02:45:41;;;;;;;3.58;1.33;;;;;;;;;;5035862;28;20493;-72
2022/05/05 02:48:08;;;;;;;1.35;0.80;;;;;;;;;;5053552;28;20075;-73
2022/05/05 02:50:36;;;;;;;1.95;0.80;;;;;;;;;;5053505;28;20075;-73
2022/05/05 02:54:47;;;;;;;1.65;0.90;;;;;;;;;;5035580;28;20481;-73
2022/05/05 02:55:50;;;;;;;3.03;0.88;;;;;;;;;;5053361;28;20486;-73
2022/05/05 02:58:17;;;;;;;3.10;0.85;;;;;;;;;;5053422;28;20037;-73
2022/05/05 03:00:44;;;;;;;2.95;0.80;;;;;;;;;;5035665;28;20076;-74
2022/05/05 03:03:11;;;;;;;1.95;0.90;;;;;;;;;;5053500;28;20028;-74
2022/05/05 03:05:38;;;;;;;3.22;0.80;;;;;;;;;;5053635;28;20390;-74
2022/05/05 03:08:05;;;;;;;1.73;0.73;;;;;;;;;;5035582;28;20393;-75
2022/05/05 03:10:33;;;;;;;3.55;0.98;;;;;;;;;;5053380;28;20025;-75
2022/05/05 03:13:00;;;;;;;1.95;0.80;;;;;;;;;;5053031;28;20513;-74
2022/05/05 03:15:27;;;;;;;2.03;0.73;;;;;;;;;;5034892;28;20382;-74
2022/05/05 03:17:54;;;;;;;1.73;0.70;;;;;;;;;;5034778;28;20397;-74
2022/05/05 03:20:21;;;;;;;1.77;0.60;;;;;;;;;;5052729;28;20021;-75
2022/05/05 03:22:49;;;;;;;2.00;0.70;;;;;;;;;;5052689;28;20103;-75
2022/05/05 03:25:16;;;;;;;2.15;1.05;;;;;;;;;;5052695;28;20025;-75
2022/05/05 03:27:43;;;;;;;1.23;0.80;;;;;;;;;;5052680;28;20021;-74
2022/05/05 03:30:10;;;;;;;3.00;0.90;;;;;;;;;;5052695;28;20017;-74
2022/05/05 03:32:38;;;;;;;5.35;0.90;;;;;;;;;;5052578;28;20036;-74
2022/05/05 03:35:05;;;;;;;2.38;0.63;;;;;;;;;;5052595;28;20140;-73
2022/05/05 03:37:32;;;;;;;2.50;0.70;;;;;;;;;;5052653;28;20051;-74
2022/05/05 03:40:00;;;;;;;2.20;0.90;;;;;;;;;;5052718;28;20039;-74
2022/05/05 03:42:27;;;;;;;2.97;0.77;;;;;;;;;;5053063;28;20033;-74
2022/05/05 03:44:54;;;;;;;1.45;0.63;;;;;;;;;;5034979;28;20132;-74
2022/05/05 03:47:21;;;;;;;2.72;0.88;;;;;;;;;;5034912;28;20504;-73
2022/05/05 03:49:48;;;;;;;1.20;0.65;;;;;;;;;;5052831;28;20018;-73
2022/05/05 03:52:15;;;;;;;3.30;0.90;;;;;;;;;;5052978;28;20047;-73
2022/05/05 03:54:42;;;;;;;2.85;0.80;;;;;;;;;;5036302;28;20020;-73
2022/05/05 03:57:09;;;;;;;1.70;0.63;;;;;;;;;;5057006;28;20029;-74
2022/05/05 03:59:37;;;;;;;1.83;0.82;;;;;;;;;;5056885;28;20414;-74
2022/05/05 04:02:04;;;;;;;2.30;0.75;;;;;;;;;;5056764;28;20056;-73
2022/05/05 04:04:31;;;;;;;2.08;0.70;;;;;;;;;;5056699;28;20029;-74
2022/05/05 04:06:58;;;;;;;2.10;0.77;;;;;;;;;;5056796;28;20027;-75
2022/05/05 04:09:25;;;;;;;1.90;0.73;;;;;;;;;;5056801;28;20088;-75
2022/05/05 04:11:52;;;;;;;2.65;0.80;;;;;;;;;;5038529;28;20053;-75
2022/05/05 04:14:20;;;;;;;2.50;0.80;;;;;;;;;;5038841;28;20104;-74
2022/05/05 04:16:47;;;;;;;2.05;0.90;;;;;;;;;;5038787;28;20025;-74
2022/05/05 04:19:14;;;;;;;2.40;1.00;;;;;;;;;;5056641;28;20067;-74
2022/05/05 04:21:41;;;;;;;3.03;0.70;;;;;;;;;;5057015;28;20075;-74
2022/05/05 04:24:09;;;;;;;1.90;1.08;;;;;;;;;;5038474;28;20056;-75
2022/05/05 04:26:36;;;;;;;2.92;1.17;;;;;;;;;;5038044;28;20028;-75
2022/05/05 04:29:04;;;;;;;3.20;1.17;;;;;;;;;;5038206;28;20017;-75
2022/05/05 04:31:31;;;;;;;3.30;1.23;;;;;;;;;;5038241;28;20027;-75
2022/05/05 04:47:16;;;;;;;4.05;1.83;;;;;;;;;;5111124;27;20389;-74
2022/05/05 04:49:43;;;;;;;3.58;1.48;;;;;;;;;;5109756;28;20024;-73
2022/05/05 04:52:10;;;;;;;5.35;1.75;;;;;;;;;;5109769;28;20020;-74
2022/05/05 04:54:37;;;;;;;3.28;1.13;;;;;;;;;;5110780;28;20454;-73
2022/05/05 04:57:05;;;;;;;3.47;1.10;;;;;;;;;;5109292;28;20032;-72
2022/05/05 04:59:32;;;;;;;3.22;1.20;;;22.00;99.90;;;;;;5109929;28;20040;-73
2022/05/05 05:01:59;;;;;;;4.20;1.25;;;;;;;;;;5109644;28;20081;-73
2022/05/05 05:04:27;;;;;;;3.47;1.15;;;22.10;99.90;;;;;;5109720;28;20115;-74
2022/05/05 05:06:54;;;;;;;4.00;1.20;;;22.00;99.90;;;;;;5111735;28;20125;-73
2022/05/05 05:09:22;;;;;;;5.38;1.38;;;21.90;99.90;;;;;;5110997;28;20023;-74
2022/05/05 05:11:49;;;;;;;3.25;1.00;;;21.90;99.90;;;;;;5110725;28;20050;-75
2022/05/05 05:14:16;;;;;;;5.53;0.95;;;21.90;99.90;;;;;;5110824;28;20020;-74
2022/05/05 05:16:44;;;;;;;2.03;0.88;;;21.90;99.90;;;;;;5110620;28;20497;-73
2022/05/05 05:19:11;;;;;;;3.20;0.90;;;22.00;99.90;;;;;;5109285;28;20166;-73
2022/05/05 05:21:39;;;;;;;3.85;1.10;;;21.90;99.90;;;;;;5110738;28;20472;-74
2022/05/05 05:24:07;;;;;;;4.47;1.17;;;21.80;99.90;;;;;;5110479;28;20016;-75
2022/05/05 05:26:34;;;;;;;3.20;0.88;;;21.70;99.90;;;;;;5110858;28;20023;-75
2022/05/05 05:29:01;;;;;;;2.55;1.00;;;21.70;99.90;;;;;;5109116;28;20023;-75
2022/05/05 05:31:29;;;;;;;2.85;1.13;;;21.50;99.90;;;;;;5110387;28;20020;-75
2022/05/05 05:33:56;;;;;;;4.25;1.10;;;21.30;99.90;;;;;;5110517;28;20020;-75
2022/05/05 05:36:23;;;;;;;3.20;1.27;;;21.20;99.90;;;;;;5110254;28;20117;-74
2022/05/05 05:38:51;;;;;;;4.55;1.23;;;21.10;99.90;;;;;;5110171;28;20024;-75
2022/05/05 05:41:18;;;;;;;4.88;1.40;;;21.10;99.90;;;;;;5108976;28;20051;-74
2022/05/05 05:43:46;;;;;;;5.03;1.10;;;21.10;99.90;;;;;;5109997;28;20541;-72
2022/05/05 05:46:13;;;;;;;3.72;0.95;;;21.20;99.90;;;;;;5106948;28;20127;-73
2022/05/05 05:48:40;;;;;;;3.20;1.00;;;21.20;99.90;;;;;;5096814;28;20024;-74
2022/05/05 05:51:08;;;;;;;4.03;0.90;;;21.30;99.90;;;;;;5097069;28;20604;-74
2022/05/05 05:53:35;;;;;;;3.08;0.90;;;21.30;99.90;;;;;;5095300;28;20054;-74
2022/05/05 05:56:03;;;;;;;6.50;1.13;;;21.10;99.90;;;;;;5096042;28;20035;-78
2022/05/05 05:58:30;;;;;;;2.97;1.10;;;21.20;99.90;;;;;;5095594;28;20024;-75
2022/05/05 06:00:57;;;;;;;4.50;1.02;;;21.00;99.90;;;;;;5095187;28;20065;-74
2022/05/05 06:06:11;;;;;;;5.25;1.15;;;21.00;99.90;;;;;;5096375;28;20035;-72
2022/05/05 06:08:38;;;;;;;4.60;1.13;;;20.90;99.90;;;;;;5095828;28;20476;-73
2022/05/05 06:11:06;;;;;;;3.90;1.30;;;20.90;99.90;;;;;;5095699;28;20020;-72
2022/05/05 06:13:33;;;;;;;3.20;1.08;;;20.80;99.90;;;;;;5095728;28;20053;-72
2022/05/05 06:16:00;;;;;;;9.10;1.30;;;20.70;99.90;;;;;;5094844;28;20050;-73
2022/05/05 06:18:28;;;;;;;3.97;0.90;;;20.70;99.90;;;;;;5095735;28;20027;-72
2022/05/05 06:20:55;;;;;;;4.20;1.42;;;20.70;99.90;;;;;;5095022;28;20028;-71
2022/05/05 06:23:22;;;;;;;2.72;1.27;;;20.60;99.90;;;;;;5095544;28;20016;-73
2022/05/05 06:25:49;;;;;;;4.03;1.30;;;20.60;99.90;;;;;;5095356;28;20027;-71
2022/05/05 06:28:17;;;;;;;3.45;0.90;;;20.40;99.90;;;;;;5095796;28;20034;-71
2022/05/05 06:30:44;;;;;;;3.45;1.10;;;20.30;99.90;;;;;;5096181;28;20119;-71
2022/05/05 06:33:12;;;;;;;3.53;1.05;;;20.30;99.90;;;;;;5095255;28;20020;-71
2022/05/05 06:35:39;;;;;;;4.40;1.25;;;20.20;99.90;;;;;;5095793;28;20419;-72
2022/05/05 06:38:07;;;;;;;5.00;1.45;;;20.00;99.90;;;;;;5095520;28;20024;-72
2022/05/05 06:40:35;;;;;;;4.30;1.25;;;20.00;99.90;;;;;;5095627;28;20475;-72
2022/05/05 06:43:05;;;;;;;5.18;1.20;;;19.90;99.90;;;;;;5102487;28;20024;-72
2022/05/05 06:45:33;;;;;;;3.05;1.05;;;19.90;99.90;;;;;;5096822;28;20048;-72
2022/05/05 06:48:01;;;;;;;4.38;1.45;;;19.80;99.90;;;;;;5095602;28;20031;-71
2022/05/05 06:50:29;;;;;;;4.50;1.13;;;19.70;99.90;;;;;;5102797;28;20019;-71
2022/05/05 06:53:00;;;;;;;4.55;1.20;;;19.70;99.90;;;;;;5094426;28;20024;-71
2022/05/05 06:55:27;;;;;;;3.88;1.40;;;19.60;99.90;;;;;;5095853;28;20024;-72
2022/05/05 06:57:55;;;;;;;3.35;1.25;;;19.50;99.90;;;;;;5094407;28;20388;-72
2022/05/05 07:00:22;;;;;;;2.90;1.25;;;19.30;99.90;;;;;;5094233;28;20020;-72
2022/05/05 07:02:49;;;;;;;2.83;1.20;;;19.30;99.90;;;;;;5094624;28;20405;-72
2022/05/05 07:05:27;;;;;;;4.80;1.10;;;19.10;99.90;;;;;;5094310;28;20124;-72
2022/05/05 07:07:55;;;;;;;3.22;1.13;;;19.00;99.90;;;;;;5094418;28;20073;-72
2022/05/05 07:13:09;;;;;;;2.70;1.05;;;18.90;99.90;;;;;;5094296;28;20034;-71
2022/05/05 07:15:48;;;;;;;4.13;1.10;;;18.90;99.90;;;;;;5106161;28;20107;-71
2022/05/05 07:18:15;;;;;;;3.88;1.52;;;18.80;99.90;;;;;;5081109;28;20119;-72
2022/05/05 07:20:44;;;;;;;5.25;1.63;;;18.70;99.90;;;;;;5083682;28;20054;-72
2022/05/05 07:23:14;;;;;;;3.60;1.10;;;18.60;99.90;;;;;;5095318;28;20031;-71
2022/05/05 07:25:43;;;;;;;3.55;1.10;;;18.60;99.90;;;;;;5093241;28;20475;-72
2022/05/05 07:28:12;;;;;;;5.18;1.13;;;18.60;99.90;;;;;;5094380;28;20472;-71
2022/05/05 07:30:40;;;;;;;3.42;1.75;;;18.60;99.90;;;;;;5093076;28;20028;-72
2022/05/05 07:33:07;;;;;;;2.60;1.25;;;18.60;99.90;;;;;;5094302;28;20024;-72
2022/05/05 07:35:38;;;;;;;5.03;1.55;;;18.50;99.90;;;;;;5093106;28;20020;-72
2022/05/05 07:38:06;;;;;;;3.33;1.65;;;18.40;99.90;;;;;;5093290;28;20105;-73
2022/05/05 07:40:33;;;;;;;3.58;1.70;;;18.40;99.90;;;;;;5093073;28;20032;-72
2022/05/05 07:43:00;;;;;;;5.63;5.00;;;18.40;99.90;;;;;;5093988;28;20464;-72
2022/05/05 07:45:28;;;;;;;7.18;4.38;;;18.30;99.90;;;;;;5092462;28;20048;-72
2022/05/05 07:47:59;;;;;;;6.47;3.78;;;18.30;99.90;;;;;;5092687;28;20031;-72
2022/05/05 07:50:27;;;;;;;4.70;2.58;;;18.20;99.90;;;;;;5094378;28;20088;-72
2022/05/05 07:52:54;;;;;;;3.67;1.80;;;18.10;99.90;;;;;;5093126;28;20058;-72
2022/05/05 07:55:21;;;;;;;3.55;1.92;;;18.10;99.90;;;;;;5092552;28;20028;-72
2022/05/05 07:57:49;;;;;;;6.90;1.80;;;18.10;99.90;;;;;;5092789;28;20024;-72
2022/05/05 08:00:17;;;;;;;10.20;2.30;;;18.10;99.90;;;;;;5093887;28;20388;-71
2022/05/05 08:02:44;;;;;;;4.40;1.70;;;18.10;99.90;;;;;;5092524;28;20107;-71
2022/05/05 08:05:12;;;;;;;2.70;1.55;;;18.00;99.90;;;;;;5093618;28;20119;-71
2022/05/05 08:07:45;;;;;;;6.00;2.05;;;17.90;99.90;;;;;;5092468;28;20079;-71
2022/05/05 08:10:13;;;;;;;5.50;1.80;;;17.90;99.90;;;;;;5093031;28;20024;-71
2022/05/05 08:12:40;;;;;;;5.15;2.10;;;17.80;99.90;;;;;;5093118;28;20431;-71
2022/05/05 08:15:10;;;;;;;6.32;2.88;;;17.80;99.90;;;;;;5093196;28;20493;-70
2022/05/05 08:17:38;;;;;;;7.00;2.70;;;17.80;99.90;;;;;;5093265;28;20073;-70
2022/05/05 08:20:07;;;;;;;7.43;2.50;;;17.80;99.90;;;;;;5093236;28;20497;-70
2022/05/05 08:22:35;;;;;;;10.57;3.28;;;17.80;99.90;;;;;;5093114;28;20031;-71
2022/05/05 08:30:33;;;;;;;5.10;2.35;;;17.70;99.90;;;;;;5093564;28;20067;-71
2022/05/05 08:33:00;;;;;;;7.25;2.92;;;17.70;99.90;;;;;;5093635;28;20016;-70
2022/05/05 08:35:27;;;;;;;6.53;2.55;;;17.70;99.90;;;;;;5093306;28;20024;-72
2022/05/05 08:37:56;;;;;;;5.10;2.38;;;17.60;99.90;;;;;;5091623;28;20052;-71
2022/05/05 08:40:26;;;;;;;8.50;2.50;;;17.60;99.90;;;;;;5092873;28;20069;-71
2022/05/05 08:42:54;;;;;;;8.70;3.28;;;17.60;99.90;;;;;;5092749;28;20028;-71
2022/05/05 08:45:22;;;;;;;8.65;3.05;;;17.60;99.90;;;;;;5092577;28;20101;-71
2022/05/05 08:47:54;;;;;;;6.50;2.70;;;17.50;99.90;;;;;;5093120;28;20030;-71
2022/05/05 08:50:24;;;;;;;5.47;2.38;;;17.50;99.90;;;;;;5091639;28;20137;-71
2022/05/05 08:52:52;;;;;;;5.00;2.53;;;17.50;99.90;;;;;;5092815;28;20035;-71
2022/05/05 08:55:21;;;;;;;5.15;2.65;;;17.40;99.90;;;;;;5092920;28;20093;-71
2022/05/05 08:57:49;;;;;;;4.25;2.15;;;17.40;99.90;;;;;;5092734;28;20027;-72
2022/05/05 09:00:17;;;;;;;5.47;2.22;;;17.40;99.90;;;;;;5092799;28;20027;-73
2022/05/05 09:02:45;;;;;;;8.00;2.78;;;17.40;99.90;;;;;;5092901;28;20413;-72
2022/05/05 09:05:12;;;;;;;5.22;2.47;;;17.40;99.90;;;;;;5092905;28;20372;-72
2022/05/05 09:07:50;;;;;;;7.18;2.83;;;17.40;99.90;;;;;;5091587;28;20064;-73
2022/05/05 09:10:20;;;;;;;5.18;2.35;;;17.40;99.90;;;;;;5091796;28;20020;-72
2022/05/05 09:13:01;;;;;;;8.50;2.73;;;17.40;99.90;;;;;;5092766;28;20051;-72
2022/05/05 09:15:32;;;;;;;;;;;17.30;99.90;;;;;;5093618;28;20545;-70
2022/05/05 09:18:14;;;;;;;;;;;17.30;99.90;;;;;;5091849;28;20271;-72
2022/05/05 09:20:43;;;;;;;6.68;3.00;;;17.30;99.90;;;;;;5091657;28;19942;-71
2022/05/05 09:23:29;;;;;;;8.35;4.70;;;17.20;99.90;;;;;;5095514;28;20016;-72
2022/05/05 09:25:57;;;;;;;8.88;3.40;;;17.20;99.90;;;;;;5096429;28;20020;-70
2022/05/05 09:28:35;;;;;;;5.43;2.95;;;17.20;99.90;;;;;;5094968;28;20020;-72
2022/05/05 09:31:05;;;;;;;9.30;3.65;;;17.20;99.90;;;;;;5094989;28;20059;-72
2022/05/05 09:33:38;;;;;;;6.38;3.28;;;17.20;99.90;;;;;;5094956;28;20360;-72
2022/05/05 09:36:13;;;;;;;8.45;3.75;;;17.20;99.90;;;;;;5096186;28;20035;-71
2022/05/05 09:39:05;;;;;;;10.57;4.00;;;17.10;99.90;;;;;;5096178;28;20024;-71
2022/05/05 09:41:34;;;;;;;7.90;3.75;;;17.10;99.90;;;;;;5096155;28;20099;-72
2022/05/05 09:44:18;;;;;;;7.70;3.95;;;17.10;99.90;;;;;;5095972;28;20020;-71
2022/05/05 09:46:46;;;;;;;9.50;4.03;;;17.10;99.90;;;;;;5095922;28;20036;-70
2022/05/05 09:49:18;;;;;;;10.35;4.05;;;17.10;99.90;;;;;;5095868;28;20024;-71
2022/05/05 09:57:39;;;;;;;6.43;3.78;;;17.10;99.90;;;;;;5094586;28;20031;-71
2022/05/05 09:57:41;;;;;;;8.73;4.30;;;17.00;99.90;;;;;;5096336;28;20061;-70
2022/05/05 10:00:44;;;;;;;9.60;3.72;;;16.90;99.90;;;;;;5095879;28;20023;-71
2022/05/05 10:06:05;;;;;;;6.38;3.50;;;16.90;99.90;;;;;;5095846;28;20066;-72
2022/05/05 10:08:47;;;;;;;8.38;4.30;;;16.90;99.90;;;;;;5095570;28;20024;-71
2022/05/05 10:11:15;;;;;;;8.23;4.03;;;16.80;99.90;;;;;;5094310;28;20149;-71
2022/05/05 10:13:45;;;;;;;7.57;3.60;;;16.80;99.90;;;;;;5095551;28;20542;-71
2022/05/05 10:16:16;;;;;;;7.35;4.18;;;16.80;99.90;;;;;;5077544;28;20060;-72
2022/05/05 10:18:45;;;;;;;8.05;4.30;;;16.80;99.90;;;;;;5094534;28;20024;-73
2022/05/05 10:21:27;;;;;;;8.82;4.07;;;16.80;99.90;;;;;;5094187;28;20249;-72
2022/05/05 10:24:03;;;;;;;8.50;4.45;;;16.70;99.90;;;;;;5095392;28;20418;-72
2022/05/05 10:26:31;;;;;;;8.05;4.05;;;16.70;99.90;;;;;;5095492;28;20024;-72
2022/05/05 10:28:59;;;;;;;9.15;4.75;;;16.60;99.90;;;;;;5095392;28;20020;-70
2022/05/05 10:31:33;;;;;;;9.80;5.00;;;16.70;99.90;;;;;;5095324;28;20020;-71
2022/05/05 10:34:04;;;;;;;10.70;5.75;;;16.70;99.90;;;;;;5095020;28;20050;-70
2022/05/05 10:36:32;;;;;;;8.45;4.53;;;16.70;99.90;;;;;;5094901;28;20383;-71
2022/05/05 10:39:00;;;;;;;10.77;5.85;;;16.70;99.90;;;;;;5095030;28;20467;-71
2022/05/05 10:41:41;;;;;;;13.43;5.88;;;16.80;99.90;;;;;;5095015;28;20020;-71
2022/05/05 10:44:16;;;;;;;;;;;16.80;99.90;;;;;;5095241;28;20059;-71
2022/05/05 10:46:53;;;;;;;10.30;5.47;;;16.90;99.90;;;;;;5093369;28;19923;-71
2022/05/05 10:49:33;;;;;;;11.80;4.60;;;16.90;99.90;;;;;;5093411;28;20027;-71
2022/05/05 10:52:12;;;;;;;8.95;3.97;;;17.10;99.90;;;;;;5094882;28;20027;-71
2022/05/05 10:54:43;;;;;;;7.13;4.00;;;17.30;99.90;;;;;;5094601;28;20024;-70
2022/05/05 10:57:26;;;;;;;8.20;3.90;;;17.40;99.90;;;;;;5094582;28;20016;-71
2022/05/05 11:00:12;;;;;;;7.18;3.20;;;17.40;99.90;;;;;;5094527;28;20103;-71
2022/05/05 11:02:40;;;;;;;8.98;3.00;;;17.40;99.90;;;;;;5094550;28;20052;-71
2022/05/05 11:05:30;;;;;;;6.30;3.05;;;17.40;99.90;;;;;;5094431;28;20095;-71
2022/05/05 11:08:17;;;;;;;6.88;2.78;;;17.40;99.90;;;;;;5093113;28;20346;-71
2022/05/05 11:13:38;;;;;;;6.05;3.13;;;17.40;99.90;;;;;;5094631;28;20096;-71
2022/05/05 11:22:17;;;;;;;7.47;3.40;;;17.10;99.90;;;;;;5094409;28;20388;-70
2022/05/05 11:24:49;;;;;;;9.95;4.05;;;17.00;99.90;;;;;;5093981;28;20012;-71
2022/05/05 11:27:18;;;;;;;10.05;3.85;;;16.90;99.90;;;;;;5093966;28;20048;-71
2022/05/05 11:29:56;;;;;;;9.30;3.88;;;16.90;99.90;;;;;;5093897;28;20023;-71
2022/05/05 11:32:32;;;;;;;11.05;4.60;;;16.80;99.90;;;;;;5093874;28;20044;-70
2022/05/05 11:35:00;;;;;;;8.68;4.38;;;16.80;99.90;;;;;;5093802;28;20103;-71
2022/05/05 11:37:28;;;;;;;8.60;4.60;;;16.70;99.90;;;;;;5093751;28;20472;-71
2022/05/05 11:39:56;;;;;;;9.80;4.38;;;16.60;99.90;;;;;;5093738;28;20024;-71
2022/05/05 11:42:23;;;;;;;6.85;4.32;;;16.60;99.90;;;;;;5093690;28;20020;-71
2022/05/05 11:44:51;;;;;;;9.75;4.50;;;16.60;99.90;;;;;;5091610;28;20024;-72
2022/05/05 11:47:20;;;;;;;12.05;4.25;;;16.60;99.90;;;;;;5093718;28;20031;-71
2022/05/05 11:49:52;;;;;;;5.00;4.10;;;16.60;99.90;;;;;;5093589;28;20017;-71
2022/05/05 11:52:24;;;;;;;9.07;3.80;;;16.60;99.90;;;;;;5093548;28;20048;-71
2022/05/05 11:54:54;;;;;;;7.57;3.35;;;16.70;99.90;;;;;;5093475;28;20024;-71
2022/05/05 11:57:45;;;;;;;9.90;3.65;;;16.70;99.90;;;;;;5093360;28;20020;-71
2022/05/05 12:03:04;;;;;;;7.45;3.65;;;16.90;99.90;;;;;;5093514;28;20157;-71
2022/05/05 12:05:32;;;;;;;10.15;3.67;;;17.00;99.90;;;;;;5093480;28;20024;-71
2022/05/05 12:07:59;;;;;;;9.68;3.70;;;17.00;99.90;;;;;;5092024;28;20031;-71
2022/05/05 12:10:36;;;;;;;7.88;3.47;;;16.90;99.90;;;;;;5092050;28;20434;-71
2022/05/05 12:13:03;;;;;;;9.68;3.75;;;16.90;99.90;;;;;;5093239;28;20024;-71
2022/05/05 12:15:33;;;;;;;6.55;3.50;;;16.90;99.90;;;;;;5091850;28;20119;-71
2022/05/05 12:18:00;;;;;;;7.38;3.60;;;16.80;99.90;;;;;;5093205;28;20047;-71
2022/05/05 12:20:30;;;;;;;7.45;3.13;;;16.70;99.90;;;;;;5093222;28;20111;-71
2022/05/05 12:23:02;;;;;;;7.68;3.63;;;16.70;99.90;;;;;;5091829;28;20020;-71
2022/05/05 12:25:30;;;;;;;8.20;4.10;;;16.70;99.90;;;;;;5091823;28;20165;-71
2022/05/05 12:28:00;;;;;;;9.18;3.08;;;16.70;99.90;;;;;;5091842;28;20020;-71
2022/05/05 12:30:32;;;;;;;10.05;3.17;;;16.70;99.90;;;;;;5093165;28;20035;-71
2022/05/05 12:33:00;;;;;;;8.15;3.28;;;16.80;99.90;;;;;;5093103;28;20103;-71
2022/05/05 12:35:35;;;;;;;10.07;3.28;;;16.80;99.90;;;;;;5092740;28;20032;-71
2022/05/05 12:38:08;;;;;;;9.55;3.45;;;16.90;99.90;;;;;;5093068;28;20133;-70
2022/05/05 12:40:43;;;;;;;9.65;4.13;;;16.90;99.90;;;;;;5092867;28;20498;-70
2022/05/05 12:43:13;;;;;;;6.18;3.42;;;16.90;99.90;;;;;;5093095;28;20095;-71
2022/05/05 12:45:42;;;;;;;7.22;3.38;;;16.90;99.90;;;;;;5092883;28;20040;-70
2022/05/05 12:48:10;;;;;;;5.97;3.20;;;16.80;99.90;;;;;;5092873;28;20024;-70
2022/05/05 12:50:42;;;;;;;10.10;3.47;;;16.80;99.90;;;;;;5092805;28;20024;-71
2022/05/05 13:01:33;;;;;;;5.28;2.38;;;16.90;99.90;;;;;;5096952;28;20027;-71
2022/05/05 13:04:07;;;;;;;6.45;2.78;;;17.00;99.90;;;;;;5095682;28;20020;-71
2022/05/05 13:06:36;;;;;;;7.75;2.80;;;16.90;99.90;;;;;;5095489;28;20027;-72
2022/05/05 13:09:05;;;;;;;3.95;2.05;;;16.90;99.90;;;;;;5095503;28;20028;-72
2022/05/05 13:11:33;;;;;;;4.82;2.03;;;16.80;99.90;;;;;;5095557;28;20023;-72
2022/05/05 13:14:03;;;;;;;10.15;2.35;;;16.80;99.90;;;;;;5095456;28;20543;-72
2022/05/05 13:16:35;;;;;;;3.90;1.95;;;16.80;99.90;;;;;;5095315;28;20024;-72
2022/05/05 13:19:04;;;;;;;3.05;1.25;;;16.70;99.90;;;;;;5096605;28;20144;-72
2022/05/05 13:21:41;;;;;;;4.97;1.80;;;16.70;99.90;;;;;;5096611;28;20465;-71
2022/05/05 13:24:10;;;;;;;5.10;1.50;;;16.80;99.90;;;;;;5095519;28;20024;-73
2022/05/05 13:26:39;;;;;;;2.40;1.50;;;16.70;99.90;;;;;;5095732;28;20028;-72
2022/05/05 13:29:07;;;;;;;5.00;1.40;;;16.80;99.90;;;;;;5096610;28;20103;-73
2022/05/05 13:31:34;;;;;;;2.78;1.20;;;16.70;99.90;;;;;;5095080;28;20031;-72
2022/05/05 13:34:01;;;;;;;2.58;1.15;;;16.70;99.90;;;;;;5096437;28;20024;-72
2022/05/05 13:36:29;;;;;;;3.05;1.25;;;16.60;99.90;;;;;;5094798;28;20028;-71
2022/05/05 13:39:00;;;;;;;2.72;1.10;;;16.60;99.90;;;;;;5096214;28;20024;-71
2022/05/05 13:41:27;;;;;;;2.78;1.13;;;16.50;99.90;;;;;;5094882;28;20536;-71
2022/05/05 13:43:54;;;;;;;3.22;1.20;;;16.50;99.90;;;;;;5096202;28;20020;-71
2022/05/05 13:46:22;;;;;;;3.55;0.73;;;16.40;99.90;;;;;;5094683;28;20048;-72
2022/05/05 13:48:50;;;;;;;2.97;0.95;;;16.40;99.90;;;;;;5094973;28;20520;-71
2022/05/05 13:51:18;;;;;;;4.90;1.52;;;16.40;99.90;;;;;;5096078;28;20028;-71
2022/05/05 13:53:45;;;;;;;6.00;1.27;;;16.30;99.90;;;;;;5095987;28;20028;-71
2022/05/05 13:56:13;;;;;;;1.85;0.70;;;16.30;99.90;;;;;;5095878;28;20024;-70
2022/05/05 13:58:41;;;;;;;1.98;0.77;;;16.20;99.90;;;;;;5095822;28;20031;-71
2022/05/05 14:01:08;;;;;;;2.60;0.90;;;16.20;99.90;;;;;;5095851;28;20447;-70
2022/05/05 14:03:36;;;;;;;2.78;0.70;;;16.20;99.90;;;;;;5095795;28;20040;-70
2022/05/05 14:06:03;;;;;;;3.22;0.93;;;16.10;99.90;;;;;;5095753;28;20030;-71
2022/05/05 14:14:01;;;;;;;0.93;0.40;;;16.00;99.90;;;;;;5095747;28;20553;-71
2022/05/05 14:16:31;;;;;;;2.20;0.75;;;16.10;99.90;;;;;;5095493;28;20021;-72
2022/05/05 14:18:58;;;;;;;2.20;0.60;;;16.10;99.90;;;;;;5094251;28;20085;-72
2022/05/05 14:21:26;;;;;;;1.48;0.55;;;16.10;99.90;;;;;;5095567;28;20020;-72
2022/05/05 14:23:53;;;;;;;0.68;0.47;;;16.20;99.90;;;;;;5095380;28;20107;-71
2022/05/05 14:26:20;;;;;;;0.80;0.40;;;16.20;99.90;;;;;;5095467;28;20016;-72
2022/05/05 14:28:48;;;;;;;1.45;0.40;;;16.10;99.90;;;;;;5094075;28;20063;-72
2022/05/05 14:31:15;;;;;;;2.15;0.50;;;16.10;99.90;;;;;;5093980;28;20020;-72
2022/05/05 14:33:42;;;;;;;0.95;0.57;;;16.10;99.90;;;;;;5093797;28;20032;-71
2022/05/05 14:36:10;;;;;;;2.33;0.65;;;16.10;99.90;;;;;;5095105;28;20065;-71
2022/05/05 14:38:37;;;;;;;1.10;0.45;;;16.10;99.90;;;;;;5095030;28;20107;-72